createdAt,value
2023-01-29T00:00:18.381Z,5.20
2023-01-29T00:01:18.071Z,4.90
2023-01-29T00:02:17.999Z,4.60
2023-01-29T00:03:18.018Z,4.70
2023-01-29T00:04:17.930Z,4.50
2023-01-29T00:05:27.355Z,5.40
2023-01-29T00:06:17.905Z,4.90
2023-01-29T00:07:17.906Z,4.90
2023-01-29T00:08:17.955Z,5.00
2023-01-29T00:09:17.910Z,5.00
2023-01-29T00:10:18.097Z,4.80
2023-01-29T00:11:18.620Z,5.50
2023-01-29T00:12:17.810Z,4.70
2023-01-29T00:13:17.861Z,5.10
2023-01-29T00:14:17.805Z,5.40
2023-01-29T00:15:17.788Z,5.20
2023-01-29T00:16:17.755Z,5.10
2023-01-29T00:17:17.797Z,5.70
2023-01-29T00:18:17.763Z,5.20
2023-01-29T00:19:17.724Z,5.20
2023-01-29T00:20:18.260Z,5.50
2023-01-29T00:21:17.715Z,5.40
2023-01-29T00:22:17.710Z,5.30
2023-01-29T00:23:17.724Z,5.60
2023-01-29T00:24:17.758Z,5.20
2023-01-29T00:25:17.680Z,5.80
2023-01-29T00:26:17.624Z,5.00
2023-01-29T00:27:17.640Z,5.60
2023-01-29T00:28:17.659Z,5.50
2023-01-29T00:29:17.679Z,6.00
2023-01-29T00:30:17.840Z,5.90
2023-01-29T00:31:17.734Z,6.20
2023-01-29T00:32:17.669Z,5.60
2023-01-29T00:33:17.546Z,5.40
2023-01-29T00:34:17.570Z,6.40
2023-01-29T00:35:17.564Z,6.10
2023-01-29T00:36:17.518Z,6.10
2023-01-29T00:37:17.518Z,5.80
2023-01-29T00:38:17.478Z,6.00
2023-01-29T00:39:17.464Z,6.50
2023-01-29T00:40:17.875Z,5.80
2023-01-29T00:41:17.488Z,5.60
2023-01-29T00:42:17.445Z,6.30
2023-01-29T00:43:17.410Z,5.60
2023-01-29T00:44:17.422Z,6.60
2023-01-29T00:45:17.417Z,6.00
2023-01-29T00:46:17.454Z,6.00
2023-01-29T00:47:17.391Z,6.30
2023-01-29T00:48:17.349Z,6.00
2023-01-29T00:49:17.354Z,6.60
2023-01-29T00:50:17.750Z,6.00
2023-01-29T00:51:17.316Z,6.10
2023-01-29T00:52:17.331Z,6.50
2023-01-29T00:53:17.299Z,5.60
2023-01-29T00:54:17.290Z,5.80
2023-01-29T00:55:17.284Z,6.20
2023-01-29T00:56:17.241Z,6.80
2023-01-29T00:57:17.250Z,6.70
2023-01-29T00:58:17.230Z,7.00
2023-01-29T00:59:17.228Z,6.00
2023-01-29T01:00:17.668Z,6.30
2023-01-29T01:01:17.338Z,6.30
2023-01-29T01:02:17.236Z,6.90
2023-01-29T01:03:17.183Z,7.30
2023-01-29T01:04:17.171Z,6.60
2023-01-29T01:05:17.195Z,7.00
2023-01-29T01:06:17.113Z,7.00
2023-01-29T01:07:17.129Z,7.00
2023-01-29T01:08:17.092Z,6.50
2023-01-29T01:09:17.114Z,6.90
2023-01-29T01:10:17.534Z,7.10
2023-01-29T01:11:17.095Z,6.20
2023-01-29T01:12:17.065Z,6.60
2023-01-29T01:13:17.054Z,7.10
2023-01-29T01:14:17.058Z,7.30
2023-01-29T01:15:17.015Z,7.20
2023-01-29T01:16:17.080Z,7.20
2023-01-29T01:17:17.073Z,6.90
2023-01-29T01:18:17.010Z,7.90
2023-01-29T01:19:16.979Z,7.10
2023-01-29T01:20:17.398Z,7.10
2023-01-29T01:21:16.972Z,7.70
2023-01-29T01:22:16.930Z,7.90
2023-01-29T01:23:16.916Z,7.80
2023-01-29T01:24:16.972Z,7.40
2023-01-29T01:25:16.899Z,7.10
2023-01-29T01:26:16.958Z,8.40
2023-01-29T01:27:16.879Z,7.70
2023-01-29T01:28:16.839Z,7.30
2023-01-29T01:29:16.895Z,8.30
2023-01-29T01:30:17.145Z,7.90
2023-01-29T01:31:16.920Z,7.20
2023-01-29T01:32:16.779Z,7.20
2023-01-29T01:33:16.787Z,7.60
2023-01-29T01:34:16.778Z,8.30
2023-01-29T01:35:16.766Z,8.10
2023-01-29T01:36:16.723Z,8.10
2023-01-29T01:37:16.739Z,7.60
2023-01-29T01:38:16.699Z,8.10
2023-01-29T01:39:16.691Z,7.70
2023-01-29T01:40:16.946Z,7.30
2023-01-29T01:41:16.706Z,7.80
2023-01-29T01:42:16.654Z,8.10
2023-01-29T01:43:16.683Z,7.80
2023-01-29T01:44:16.636Z,8.80
2023-01-29T01:45:16.631Z,7.80
2023-01-29T01:46:16.657Z,8.00
2023-01-29T01:47:16.622Z,7.80
2023-01-29T01:48:16.584Z,7.90
2023-01-29T01:49:16.560Z,8.40
2023-01-29T01:50:16.865Z,9.20
2023-01-29T01:51:16.555Z,8.40
2023-01-29T01:52:16.556Z,9.00
2023-01-29T01:53:16.533Z,8.50
2023-01-29T01:54:16.508Z,8.90
2023-01-29T01:55:16.513Z,9.10
2023-01-29T01:56:16.511Z,9.40
2023-01-29T01:57:16.461Z,8.70
2023-01-29T01:58:16.472Z,8.90
2023-01-29T01:59:16.424Z,8.90
2023-01-29T02:00:16.704Z,9.60
2023-01-29T02:01:16.505Z,9.80
2023-01-29T02:02:16.409Z,9.30
2023-01-29T02:03:16.376Z,8.40
2023-01-29T02:04:16.437Z,9.10
2023-01-29T02:05:16.375Z,9.40
2023-01-29T02:06:16.399Z,10.80
2023-01-29T02:07:16.363Z,9.70
2023-01-29T02:08:16.362Z,9.20
2023-01-29T02:09:16.316Z,10.10
2023-01-29T02:10:16.538Z,9.40
2023-01-29T02:11:16.374Z,9.40
2023-01-29T02:12:16.266Z,9.50
2023-01-29T02:13:16.297Z,10.70
2023-01-29T02:14:16.241Z,10.10
2023-01-29T02:15:16.260Z,10.70
2023-01-29T02:16:16.255Z,10.50
2023-01-29T02:17:16.326Z,10.70
2023-01-29T02:18:16.228Z,10.50
2023-01-29T02:19:16.208Z,10.30
2023-01-29T02:20:16.481Z,10.10
2023-01-29T02:21:16.144Z,9.70
2023-01-29T02:22:16.138Z,10.10
2023-01-29T02:23:16.127Z,10.30
2023-01-29T02:24:16.280Z,10.60
2023-01-29T02:25:16.096Z,11.10
2023-01-29T02:26:16.092Z,10.30
2023-01-29T02:27:16.081Z,10.80
2023-01-29T02:28:16.087Z,10.00
2023-01-29T02:29:16.086Z,10.40
2023-01-29T02:30:16.533Z,10.70
2023-01-29T02:31:16.062Z,10.60
2023-01-29T02:32:16.010Z,11.80
2023-01-29T02:33:16.011Z,11.70
2023-01-29T02:34:15.974Z,10.30
2023-01-29T02:35:16.000Z,11.00
2023-01-29T02:36:15.992Z,10.20
2023-01-29T02:37:15.952Z,11.60
2023-01-29T02:38:15.963Z,10.90
2023-01-29T02:39:16.018Z,10.30
2023-01-29T02:40:16.274Z,11.10
2023-01-29T02:41:15.947Z,10.40
2023-01-29T02:42:15.887Z,11.30
2023-01-29T02:43:15.867Z,11.30
2023-01-29T02:44:15.873Z,10.80
2023-01-29T02:45:15.871Z,10.20
2023-01-29T02:46:15.945Z,10.30
2023-01-29T02:47:15.813Z,11.10
2023-01-29T02:48:15.795Z,11.40
2023-01-29T02:49:15.771Z,11.00
2023-01-29T02:50:16.164Z,11.50
2023-01-29T02:51:15.763Z,11.20
2023-01-29T02:52:15.760Z,11.40
2023-01-29T02:53:15.749Z,10.90
2023-01-29T02:54:15.745Z,11.10
2023-01-29T02:55:15.753Z,10.40
2023-01-29T02:56:15.690Z,11.10
2023-01-29T02:57:15.702Z,10.90
2023-01-29T02:58:15.714Z,10.60
2023-01-29T02:59:15.664Z,11.00
2023-01-29T03:00:16.070Z,10.60
2023-01-29T03:01:15.689Z,10.90
2023-01-29T03:02:15.656Z,11.20
2023-01-29T03:03:15.625Z,10.60
2023-01-29T03:04:15.602Z,10.70
2023-01-29T03:05:15.573Z,11.00
2023-01-29T03:06:15.581Z,11.00
2023-01-29T03:07:15.570Z,10.50
2023-01-29T03:08:15.560Z,10.20
2023-01-29T03:09:15.568Z,10.60
2023-01-29T03:10:15.811Z,10.60
2023-01-29T03:11:15.505Z,10.80
2023-01-29T03:12:15.482Z,10.80
2023-01-29T03:13:15.476Z,10.90
2023-01-29T03:14:15.467Z,10.80
2023-01-29T03:15:15.441Z,10.90
2023-01-29T03:16:15.517Z,10.30
2023-01-29T03:17:15.457Z,10.30
2023-01-29T03:18:15.425Z,10.60
2023-01-29T03:19:15.715Z,10.50
2023-01-29T03:20:15.897Z,11.00
2023-01-29T03:21:15.381Z,10.50
2023-01-29T03:22:15.349Z,9.50
2023-01-29T03:23:15.357Z,9.90
2023-01-29T03:24:15.398Z,10.30
2023-01-29T03:25:15.323Z,10.00
2023-01-29T03:26:15.345Z,10.10
2023-01-29T03:27:15.293Z,10.10
2023-01-29T03:28:15.330Z,10.50
2023-01-29T03:29:15.311Z,10.10
2023-01-29T03:30:15.674Z,9.60
2023-01-29T03:31:15.336Z,10.40
2023-01-29T03:32:15.249Z,10.60
2023-01-29T03:33:15.218Z,10.80
2023-01-29T03:34:15.209Z,10.20
2023-01-29T03:35:15.219Z,10.60
2023-01-29T03:36:15.176Z,10.10
2023-01-29T03:37:15.159Z,11.10
2023-01-29T03:38:15.139Z,11.10
2023-01-29T03:39:15.128Z,10.70
2023-01-29T03:40:15.462Z,10.60
2023-01-29T03:41:15.123Z,10.80
2023-01-29T03:42:15.092Z,11.30
2023-01-29T03:43:15.112Z,10.00
2023-01-29T03:44:15.091Z,10.50
2023-01-29T03:45:15.086Z,11.00
2023-01-29T03:46:15.086Z,10.40
2023-01-29T03:47:15.043Z,11.10
2023-01-29T03:48:15.018Z,12.00
2023-01-29T03:49:15.049Z,10.40
2023-01-29T03:50:15.546Z,10.80
2023-01-29T03:51:14.996Z,11.00
2023-01-29T03:52:14.999Z,10.90
2023-01-29T03:53:14.953Z,10.90
2023-01-29T03:54:14.957Z,11.70
2023-01-29T03:55:14.939Z,11.70
2023-01-29T03:56:14.922Z,10.40
2023-01-29T03:57:14.918Z,10.80
2023-01-29T03:58:14.891Z,10.80
2023-01-29T03:59:14.908Z,11.10
2023-01-29T04:00:15.344Z,11.00
2023-01-29T04:01:14.943Z,11.60
2023-01-29T04:02:14.856Z,11.10
2023-01-29T04:03:14.819Z,12.50
2023-01-29T04:04:14.862Z,11.30
2023-01-29T04:05:14.815Z,11.70
2023-01-29T04:06:14.804Z,11.90
2023-01-29T04:07:14.764Z,12.40
2023-01-29T04:08:14.807Z,11.90
2023-01-29T04:09:14.792Z,12.20
2023-01-29T04:10:15.133Z,12.00
2023-01-29T04:11:14.712Z,11.70
2023-01-29T04:12:14.752Z,11.50
2023-01-29T04:13:14.722Z,12.00
2023-01-29T04:14:14.677Z,11.70
2023-01-29T04:15:14.690Z,12.30
2023-01-29T04:16:14.778Z,12.30
2023-01-29T04:17:14.639Z,12.00
2023-01-29T04:18:14.635Z,11.80
2023-01-29T04:19:14.616Z,12.50
2023-01-29T04:20:15.013Z,12.30
2023-01-29T04:21:14.591Z,11.90
2023-01-29T04:22:14.593Z,12.20
2023-01-29T04:23:14.593Z,11.90
2023-01-29T04:24:14.605Z,11.50
2023-01-29T04:25:14.548Z,12.30
2023-01-29T04:26:14.527Z,13.00
2023-01-29T04:27:14.510Z,11.60
2023-01-29T04:28:14.558Z,12.40
2023-01-29T04:29:14.525Z,12.20
2023-01-29T04:30:14.919Z,13.10
2023-01-29T04:31:14.605Z,13.00
2023-01-29T04:32:14.485Z,12.90
2023-01-29T04:33:14.453Z,13.10
2023-01-29T04:34:14.443Z,13.20
2023-01-29T04:35:14.420Z,13.10
2023-01-29T04:36:14.414Z,12.90
2023-01-29T04:37:14.400Z,13.00
2023-01-29T04:38:14.391Z,12.90
2023-01-29T04:39:14.410Z,13.10
2023-01-29T04:40:14.784Z,13.30
2023-01-29T04:41:14.353Z,13.30
2023-01-29T04:42:14.364Z,13.80
2023-01-29T04:43:14.301Z,13.40
2023-01-29T04:44:14.310Z,13.20
2023-01-29T04:45:14.304Z,12.10
2023-01-29T04:46:14.267Z,13.60
2023-01-29T04:47:14.286Z,13.40
2023-01-29T04:48:14.267Z,12.60
2023-01-29T04:49:14.221Z,13.20
2023-01-29T04:50:14.637Z,13.30
2023-01-29T04:51:14.231Z,13.00
2023-01-29T04:52:14.227Z,13.80
2023-01-29T04:53:14.199Z,13.00
2023-01-29T04:54:14.192Z,13.70
2023-01-29T04:55:14.140Z,13.50
2023-01-29T04:56:14.135Z,13.40
2023-01-29T04:57:14.173Z,12.80
2023-01-29T04:58:14.206Z,14.10
2023-01-29T04:59:14.084Z,14.00
2023-01-29T05:00:14.438Z,13.40
2023-01-29T05:01:14.120Z,13.30
2023-01-29T05:02:14.093Z,13.90
2023-01-29T05:03:14.069Z,13.30
2023-01-29T05:04:14.064Z,12.80
2023-01-29T05:05:14.036Z,12.80
2023-01-29T05:06:14.029Z,14.00
2023-01-29T05:07:14.008Z,13.80
2023-01-29T05:08:13.989Z,12.90
2023-01-29T05:09:13.958Z,13.10
2023-01-29T05:10:14.148Z,13.30
2023-01-29T05:11:13.927Z,14.30
2023-01-29T05:12:13.954Z,13.90
2023-01-29T05:13:13.934Z,13.20
2023-01-29T05:14:13.906Z,14.00
2023-01-29T05:15:13.902Z,14.50
2023-01-29T05:16:14.016Z,13.70
2023-01-29T05:17:13.889Z,13.90
2023-01-29T05:18:13.859Z,14.90
2023-01-29T05:19:13.873Z,14.70
2023-01-29T05:20:14.269Z,14.80
2023-01-29T05:21:13.803Z,15.00
2023-01-29T05:22:13.825Z,14.60
2023-01-29T05:23:13.807Z,16.50
2023-01-29T05:24:13.843Z,15.70
2023-01-29T05:25:13.766Z,15.30
2023-01-29T05:26:13.747Z,15.40
2023-01-29T05:27:13.726Z,14.90
2023-01-29T05:28:13.774Z,16.20
2023-01-29T05:29:13.767Z,16.60
2023-01-29T05:30:13.860Z,16.60
2023-01-29T05:31:13.811Z,17.60
2023-01-29T05:32:13.688Z,16.60
2023-01-29T05:33:13.694Z,17.20
2023-01-29T05:34:13.669Z,18.20
2023-01-29T05:35:13.658Z,18.40
2023-01-29T05:36:13.633Z,18.50
2023-01-29T05:37:13.657Z,19.00
2023-01-29T05:38:13.621Z,19.70
2023-01-29T05:39:13.591Z,18.60
2023-01-29T05:40:13.769Z,19.20
2023-01-29T05:41:13.572Z,19.10
2023-01-29T05:42:13.545Z,17.70
2023-01-29T05:43:13.535Z,19.50
2023-01-29T05:44:13.559Z,19.10
2023-01-29T05:45:13.533Z,19.60
2023-01-29T05:46:13.582Z,19.40
2023-01-29T05:47:13.468Z,20.40
2023-01-29T05:48:13.455Z,21.10
2023-01-29T05:49:13.471Z,20.10
2023-01-29T05:50:13.453Z,20.50
2023-01-29T05:51:13.420Z,21.90
2023-01-29T05:52:13.422Z,21.50
2023-01-29T05:53:13.384Z,22.90
2023-01-29T05:54:13.462Z,22.30
2023-01-29T05:55:13.415Z,24.20
2023-01-29T05:56:13.364Z,22.60
2023-01-29T05:57:13.376Z,24.30
2023-01-29T05:58:13.349Z,24.00
2023-01-29T05:59:13.337Z,25.10
2023-01-29T06:00:13.371Z,24.30
2023-01-29T06:01:13.331Z,24.70
2023-01-29T06:02:13.380Z,24.40
2023-01-29T06:03:13.310Z,24.80
2023-01-29T06:04:13.338Z,23.80
2023-01-29T06:05:13.301Z,24.30
2023-01-29T06:06:13.243Z,25.00
2023-01-29T06:07:13.221Z,24.30
2023-01-29T06:08:13.317Z,25.30
2023-01-29T06:09:13.232Z,26.50
2023-01-29T06:10:13.179Z,26.50
2023-01-29T06:11:13.171Z,26.00
2023-01-29T06:12:13.145Z,26.20
2023-01-29T06:13:13.153Z,26.70
2023-01-29T06:14:13.117Z,25.70
2023-01-29T06:15:13.118Z,26.20
2023-01-29T06:16:13.199Z,26.30
2023-01-29T06:17:13.108Z,27.40
2023-01-29T06:18:13.090Z,25.90
2023-01-29T06:19:13.063Z,25.90
2023-01-29T06:20:13.100Z,27.50
2023-01-29T06:21:13.052Z,26.50
2023-01-29T06:22:13.041Z,27.00
2023-01-29T06:23:13.080Z,26.00
2023-01-29T06:24:13.049Z,26.60
2023-01-29T06:25:13.106Z,27.00
2023-01-29T06:26:12.995Z,26.80
2023-01-29T06:27:12.947Z,26.90
2023-01-29T06:28:12.982Z,27.90
2023-01-29T06:29:12.919Z,27.40
2023-01-29T06:30:12.985Z,28.70
2023-01-29T06:31:35.365Z,27.80
2023-01-29T06:32:12.948Z,24.40
2023-01-29T06:33:12.870Z,27.10
2023-01-29T06:34:12.876Z,27.00
2023-01-29T06:35:12.842Z,28.20
2023-01-29T06:36:12.841Z,27.40
2023-01-29T06:37:12.823Z,27.60
2023-01-29T06:38:12.821Z,26.40
2023-01-29T06:39:12.800Z,28.30
2023-01-29T06:40:12.798Z,28.00
2023-01-29T06:41:12.774Z,25.90
2023-01-29T06:42:12.763Z,26.30
2023-01-29T06:43:12.823Z,26.20
2023-01-29T06:44:12.748Z,28.00
2023-01-29T06:45:12.739Z,27.20
2023-01-29T06:46:12.703Z,27.30
2023-01-29T06:47:12.695Z,27.20
2023-01-29T06:48:12.684Z,25.60
2023-01-29T06:49:12.714Z,27.80
2023-01-29T06:50:12.682Z,27.30
2023-01-29T06:51:12.691Z,27.60
2023-01-29T06:52:12.643Z,28.70
2023-01-29T06:53:12.632Z,26.20
2023-01-29T06:54:12.644Z,28.40
2023-01-29T06:55:12.605Z,26.30
2023-01-29T06:56:12.569Z,27.60
2023-01-29T06:57:12.598Z,25.30
2023-01-29T06:58:12.587Z,26.10
2023-01-29T06:59:12.547Z,26.70
2023-01-29T07:00:12.517Z,26.70
2023-01-29T07:01:17.504Z,26.90
2023-01-29T07:02:12.553Z,27.60
2023-01-29T07:03:12.518Z,27.80
2023-01-29T07:04:12.474Z,26.90
2023-01-29T07:05:12.499Z,26.70
2023-01-29T07:06:12.487Z,27.50
2023-01-29T07:07:12.482Z,26.20
2023-01-29T07:08:12.428Z,26.80
2023-01-29T07:09:12.439Z,27.60
2023-01-29T07:10:12.410Z,28.60
2023-01-29T07:11:12.398Z,26.40
2023-01-29T07:12:12.410Z,23.90
2023-01-29T07:13:12.391Z,26.40
2023-01-29T07:14:12.353Z,26.40
2023-01-29T07:15:12.354Z,25.50
2023-01-29T07:16:12.378Z,24.90
2023-01-29T07:17:12.360Z,26.00
2023-01-29T07:18:12.320Z,26.70
2023-01-29T07:19:12.469Z,26.50
2023-01-29T07:20:12.293Z,27.20
2023-01-29T07:21:12.317Z,27.70
2023-01-29T07:22:12.285Z,28.30
2023-01-29T07:23:12.268Z,26.90
2023-01-29T07:24:12.299Z,26.50
2023-01-29T07:25:12.220Z,27.00
2023-01-29T07:26:12.178Z,27.10
2023-01-29T07:27:12.192Z,26.50
2023-01-29T07:28:12.201Z,26.90
2023-01-29T07:29:12.152Z,27.50
2023-01-29T07:30:12.181Z,28.20
2023-01-29T07:31:12.334Z,28.30
2023-01-29T07:32:12.161Z,28.40
2023-01-29T07:33:12.104Z,26.40
2023-01-29T07:34:12.086Z,28.80
2023-01-29T07:35:12.078Z,27.00
2023-01-29T07:36:12.076Z,27.60
2023-01-29T07:37:12.044Z,27.50
2023-01-29T07:38:12.072Z,26.60
2023-01-29T07:39:12.041Z,26.90
2023-01-29T07:40:12.025Z,27.70
2023-01-29T07:41:12.035Z,29.40
2023-01-29T07:42:12.007Z,27.10
2023-01-29T07:43:12.012Z,28.50
2023-01-29T07:44:11.962Z,27.40
2023-01-29T07:45:11.960Z,27.80
2023-01-29T07:46:11.991Z,27.10
2023-01-29T07:47:11.930Z,29.40
2023-01-29T07:48:11.897Z,26.90
2023-01-29T07:49:11.884Z,28.10
2023-01-29T07:50:11.888Z,27.30
2023-01-29T07:51:11.907Z,28.00
2023-01-29T07:52:11.855Z,28.70
2023-01-29T07:53:11.839Z,28.10
2023-01-29T07:54:11.853Z,28.00
2023-01-29T07:55:11.854Z,27.30
2023-01-29T07:56:11.835Z,28.90
2023-01-29T07:57:11.907Z,27.10
2023-01-29T07:58:11.805Z,28.90
2023-01-29T07:59:11.782Z,27.70
2023-01-29T08:00:11.794Z,27.30
2023-01-29T08:01:11.891Z,27.90
2023-01-29T08:02:11.794Z,27.80
2023-01-29T08:03:11.741Z,26.90
2023-01-29T08:04:11.769Z,28.10
2023-01-29T08:05:11.711Z,28.70
2023-01-29T08:06:11.680Z,27.70
2023-01-29T08:07:11.750Z,28.90
2023-01-29T08:08:11.685Z,27.50
2023-01-29T08:09:11.659Z,28.90
2023-01-29T08:10:11.628Z,27.80
2023-01-29T08:11:11.609Z,27.80
2023-01-29T08:12:11.621Z,27.40
2023-01-29T08:13:11.627Z,28.10
2023-01-29T08:14:11.625Z,28.00
2023-01-29T08:15:11.573Z,27.90
2023-01-29T08:16:11.614Z,27.90
2023-01-29T08:17:11.556Z,26.90
2023-01-29T08:18:11.564Z,28.30
2023-01-29T08:19:11.525Z,28.00
2023-01-29T08:20:11.497Z,27.80
2023-01-29T08:21:13.079Z,24.70
2023-01-29T08:22:11.452Z,27.20
2023-01-29T08:23:11.492Z,28.10
2023-01-29T08:24:11.446Z,29.00
2023-01-29T08:25:11.452Z,29.70
2023-01-29T08:26:11.439Z,30.30
2023-01-29T08:27:11.415Z,31.20
2023-01-29T08:28:11.423Z,30.00
2023-01-29T08:29:11.400Z,29.30
2023-01-29T08:30:11.398Z,29.80
2023-01-29T08:31:11.380Z,30.40
2023-01-29T08:32:11.428Z,29.30
2023-01-29T08:33:11.385Z,30.20
2023-01-29T08:34:11.351Z,29.10
2023-01-29T08:35:11.351Z,28.20
2023-01-29T08:36:11.309Z,30.10
2023-01-29T08:37:11.306Z,28.50
2023-01-29T08:38:11.314Z,30.70
2023-01-29T08:39:11.373Z,31.10
2023-01-29T08:40:11.263Z,31.60
2023-01-29T08:41:11.296Z,30.90
2023-01-29T08:42:11.261Z,30.00
2023-01-29T08:43:11.247Z,30.30
2023-01-29T08:44:11.184Z,31.60
2023-01-29T08:45:11.170Z,29.10
2023-01-29T08:46:11.235Z,28.30
2023-01-29T08:47:11.137Z,30.50
2023-01-29T08:48:11.139Z,29.90
2023-01-29T08:49:11.150Z,31.60
2023-01-29T08:50:11.116Z,31.90
2023-01-29T08:51:11.096Z,31.40
2023-01-29T08:52:11.091Z,33.10
2023-01-29T08:53:11.087Z,28.70
2023-01-29T08:54:11.065Z,30.10
2023-01-29T08:55:11.066Z,31.70
2023-01-29T08:56:11.016Z,29.90
2023-01-29T08:57:11.033Z,31.00
2023-01-29T08:58:11.015Z,32.50
2023-01-29T08:59:10.991Z,31.90
2023-01-29T09:00:10.964Z,30.90
2023-01-29T09:01:11.011Z,31.30
2023-01-29T09:02:10.996Z,29.40
2023-01-29T09:03:10.988Z,31.20
2023-01-29T09:04:10.911Z,31.40
2023-01-29T09:05:10.929Z,30.60
2023-01-29T09:06:10.916Z,31.80
2023-01-29T09:07:10.913Z,30.60
2023-01-29T09:08:10.887Z,27.70
2023-01-29T09:09:10.865Z,30.30
2023-01-29T09:10:10.845Z,29.70
2023-01-29T09:11:10.823Z,30.60
2023-01-29T09:12:10.817Z,29.40
2023-01-29T09:13:10.982Z,29.20
2023-01-29T09:14:10.883Z,29.20
2023-01-29T09:15:10.872Z,29.00
2023-01-29T09:16:10.950Z,29.10
2023-01-29T09:17:10.763Z,29.30
2023-01-29T09:18:10.783Z,29.30
2023-01-29T09:19:10.781Z,29.70
2023-01-29T09:20:10.921Z,28.80
2023-01-29T09:21:10.754Z,29.70
2023-01-29T09:22:11.882Z,28.60
2023-01-29T09:23:10.739Z,29.50
2023-01-29T09:24:10.663Z,28.50
2023-01-29T09:25:10.672Z,28.40
2023-01-29T09:26:10.681Z,28.50
2023-01-29T09:27:10.633Z,30.10
2023-01-29T09:28:10.629Z,28.60
2023-01-29T09:29:10.641Z,28.80
2023-01-29T09:30:10.621Z,28.40
2023-01-29T09:31:10.689Z,29.30
2023-01-29T09:32:10.566Z,28.20
2023-01-29T09:33:10.558Z,28.50
2023-01-29T09:34:10.560Z,29.50
2023-01-29T09:35:10.537Z,29.00
2023-01-29T09:36:10.503Z,29.60
2023-01-29T09:37:10.499Z,27.70
2023-01-29T09:38:10.492Z,27.10
2023-01-29T09:39:10.484Z,27.90
2023-01-29T09:40:10.502Z,27.90
2023-01-29T09:41:10.442Z,27.70
2023-01-29T09:42:10.432Z,26.50
2023-01-29T09:43:10.460Z,25.70
2023-01-29T09:44:10.431Z,26.50
2023-01-29T09:45:10.432Z,25.60
2023-01-29T09:46:10.375Z,27.10
2023-01-29T09:47:10.377Z,25.90
2023-01-29T09:48:10.375Z,26.40
2023-01-29T09:49:10.380Z,26.30
2023-01-29T09:50:10.340Z,24.20
2023-01-29T09:51:10.419Z,25.00
2023-01-29T09:52:10.350Z,24.80
2023-01-29T09:53:11.053Z,25.40
2023-01-29T09:54:10.376Z,22.10
2023-01-29T09:55:10.277Z,23.00
2023-01-29T09:56:10.260Z,24.30
2023-01-29T09:57:10.301Z,25.20
2023-01-29T09:58:10.355Z,22.90
2023-01-29T09:59:10.252Z,23.20
2023-01-29T10:00:10.208Z,23.30
2023-01-29T10:01:10.375Z,22.90
2023-01-29T10:02:10.329Z,22.50
2023-01-29T10:03:10.178Z,23.60
2023-01-29T10:04:10.198Z,21.90
2023-01-29T10:05:10.167Z,22.70
2023-01-29T10:06:10.170Z,23.00
2023-01-29T10:07:10.113Z,22.10
2023-01-29T10:08:10.131Z,21.60
2023-01-29T10:09:10.156Z,22.50
2023-01-29T10:10:10.086Z,21.70
2023-01-29T10:11:10.124Z,19.90
2023-01-29T10:12:10.047Z,21.00
2023-01-29T10:13:10.047Z,22.30
2023-01-29T10:14:10.016Z,21.50
2023-01-29T10:15:10.028Z,21.80
2023-01-29T10:16:10.017Z,21.40
2023-01-29T10:17:10.013Z,20.60
2023-01-29T10:18:09.965Z,20.40
2023-01-29T10:19:09.972Z,21.20
2023-01-29T10:20:09.922Z,20.40
2023-01-29T10:21:09.970Z,19.60
2023-01-29T10:22:09.933Z,16.60
2023-01-29T10:23:09.926Z,20.00
2023-01-29T10:24:09.955Z,18.00
2023-01-29T10:25:09.907Z,18.90
2023-01-29T10:26:09.871Z,16.60
2023-01-29T10:27:09.903Z,17.10
2023-01-29T10:28:09.879Z,17.20
2023-01-29T10:29:09.883Z,18.90
2023-01-29T10:30:09.831Z,18.90
2023-01-29T10:31:09.908Z,18.10
2023-01-29T10:32:09.835Z,17.80
2023-01-29T10:33:09.813Z,16.20
2023-01-29T10:34:09.756Z,18.40
2023-01-29T10:35:09.749Z,17.20
2023-01-29T10:36:09.740Z,15.10
2023-01-29T10:37:09.758Z,16.40
2023-01-29T10:38:09.806Z,16.30
2023-01-29T10:39:09.680Z,16.70
2023-01-29T10:40:09.677Z,17.60
2023-01-29T10:41:09.677Z,16.20
2023-01-29T10:42:09.707Z,16.10
2023-01-29T10:43:09.657Z,15.80
2023-01-29T10:44:09.637Z,15.30
2023-01-29T10:45:09.668Z,14.90
2023-01-29T10:46:09.592Z,14.60
2023-01-29T10:47:09.638Z,16.00
2023-01-29T10:48:09.573Z,13.20
2023-01-29T10:49:09.560Z,15.60
2023-01-29T10:50:09.632Z,15.30
2023-01-29T10:51:09.561Z,15.60
2023-01-29T10:52:09.519Z,15.10
2023-01-29T10:53:09.527Z,15.30
2023-01-29T10:54:09.576Z,15.70
2023-01-29T10:55:09.577Z,14.00
2023-01-29T10:56:21.789Z,15.20
2023-01-29T10:57:09.445Z,15.30
2023-01-29T10:58:09.442Z,15.70
2023-01-29T10:59:09.458Z,15.60
2023-01-29T11:00:09.526Z,16.10
2023-01-29T11:01:09.390Z,13.70
2023-01-29T11:02:09.393Z,15.10
2023-01-29T11:03:12.594Z,14.50
2023-01-29T11:04:09.362Z,14.40
2023-01-29T11:05:10.218Z,15.20
2023-01-29T11:06:09.348Z,14.80
2023-01-29T11:07:09.301Z,14.00
2023-01-29T11:08:09.298Z,14.20
2023-01-29T11:09:09.299Z,14.30
2023-01-29T11:10:09.289Z,13.00
2023-01-29T11:11:09.264Z,14.00
2023-01-29T11:12:09.257Z,15.10
2023-01-29T11:13:09.220Z,13.90
2023-01-29T11:14:09.240Z,13.80
2023-01-29T11:15:09.214Z,14.30
2023-01-29T11:16:09.184Z,14.40
2023-01-29T11:17:09.214Z,13.20
2023-01-29T11:18:09.155Z,13.70
2023-01-29T11:19:09.156Z,13.40
2023-01-29T11:20:09.131Z,14.50
2023-01-29T11:21:09.123Z,13.00
2023-01-29T11:22:09.118Z,13.20
2023-01-29T11:23:09.091Z,12.80
2023-01-29T11:24:09.082Z,13.00
2023-01-29T11:25:09.072Z,12.90
2023-01-29T11:26:09.116Z,13.80
2023-01-29T11:27:09.037Z,14.30
2023-01-29T11:28:09.038Z,13.50
2023-01-29T11:29:09.022Z,12.80
2023-01-29T11:30:09.021Z,12.90
2023-01-29T11:31:09.076Z,13.10
2023-01-29T11:32:09.002Z,12.40
2023-01-29T11:33:09.010Z,13.20
2023-01-29T11:34:08.982Z,13.20
2023-01-29T11:35:08.926Z,15.40
2023-01-29T11:36:08.939Z,13.20
2023-01-29T11:37:08.923Z,11.60
2023-01-29T11:38:08.920Z,13.20
2023-01-29T11:39:08.894Z,12.10
2023-01-29T11:40:08.881Z,12.90
2023-01-29T11:41:08.851Z,11.90
2023-01-29T11:42:08.862Z,13.00
2023-01-29T11:43:08.864Z,12.50
2023-01-29T11:44:08.840Z,12.10
2023-01-29T11:45:08.801Z,10.80
2023-01-29T11:46:08.845Z,11.90
2023-01-29T11:47:08.819Z,12.20
2023-01-29T11:48:08.789Z,12.00
2023-01-29T11:49:20.409Z,12.60
2023-01-29T11:50:08.741Z,12.60
2023-01-29T11:51:08.742Z,12.20
2023-01-29T11:52:08.745Z,12.20
2023-01-29T11:53:08.732Z,12.00
2023-01-29T11:54:08.725Z,12.10
2023-01-29T11:55:08.685Z,12.10
2023-01-29T11:56:08.678Z,12.50
2023-01-29T11:57:08.658Z,12.00
2023-01-29T11:58:08.667Z,10.80
2023-01-29T11:59:08.633Z,11.80
2023-01-29T12:00:08.625Z,10.60
2023-01-29T12:01:08.604Z,11.80
2023-01-29T12:02:08.576Z,11.90
2023-01-29T12:03:08.574Z,11.40
2023-01-29T12:04:08.582Z,11.60
2023-01-29T12:05:08.565Z,11.10
2023-01-29T12:06:08.577Z,10.70
2023-01-29T12:07:08.523Z,10.50
2023-01-29T12:08:08.515Z,11.40
2023-01-29T12:09:08.538Z,11.00
2023-01-29T12:10:08.470Z,11.20
2023-01-29T12:11:08.471Z,11.80
2023-01-29T12:12:08.470Z,13.00
2023-01-29T12:13:08.424Z,11.10
2023-01-29T12:14:08.423Z,10.90
2023-01-29T12:15:08.415Z,11.10
2023-01-29T12:16:08.509Z,12.00
2023-01-29T12:17:08.393Z,10.20
2023-01-29T12:18:08.367Z,11.40
2023-01-29T12:19:08.353Z,11.20
2023-01-29T12:20:08.365Z,10.70
2023-01-29T12:21:08.321Z,11.20
2023-01-29T12:22:08.331Z,11.10
2023-01-29T12:23:08.299Z,11.40
2023-01-29T12:24:08.321Z,10.90
2023-01-29T12:25:08.268Z,11.80
2023-01-29T12:26:08.342Z,10.70
2023-01-29T12:27:08.243Z,11.80
2023-01-29T12:28:09.541Z,11.50
2023-01-29T12:29:08.243Z,11.60
2023-01-29T12:30:08.208Z,11.70
2023-01-29T12:31:08.223Z,11.10
2023-01-29T12:32:08.198Z,11.50
2023-01-29T12:33:08.185Z,11.50
2023-01-29T12:34:08.169Z,10.90
2023-01-29T12:35:08.164Z,10.60
2023-01-29T12:36:10.695Z,11.40
2023-01-29T12:37:08.122Z,10.60
2023-01-29T12:38:08.114Z,11.20
2023-01-29T12:39:08.115Z,10.10
2023-01-29T12:40:08.109Z,11.30
2023-01-29T12:41:08.097Z,11.50
2023-01-29T12:42:08.072Z,10.30
2023-01-29T12:43:08.055Z,10.50
2023-01-29T12:44:08.055Z,11.10
2023-01-29T12:45:08.056Z,10.30
2023-01-29T12:46:08.040Z,10.30
2023-01-29T12:47:08.062Z,10.20
2023-01-29T12:48:08.026Z,10.60
2023-01-29T12:49:08.003Z,10.60
2023-01-29T12:50:08.022Z,11.20
2023-01-29T12:51:07.979Z,10.20
2023-01-29T12:52:07.999Z,9.80
2023-01-29T12:53:07.930Z,10.70
2023-01-29T12:54:07.919Z,10.50
2023-01-29T12:55:07.920Z,10.40
2023-01-29T12:56:07.891Z,10.90
2023-01-29T12:57:07.882Z,10.50